createdAt,value
2023-05-10T00:00:19.725Z,1005.53
2023-05-10T00:01:19.668Z,1005.49
2023-05-10T00:02:19.721Z,1005.49
2023-05-10T00:03:19.783Z,1005.48
2023-05-10T00:04:19.752Z,1005.44
2023-05-10T00:05:19.656Z,1005.51
2023-05-10T00:06:19.616Z,1005.48
2023-05-10T00:07:19.606Z,1005.48
2023-05-10T00:08:19.591Z,1005.46
2023-05-10T00:09:19.634Z,1005.47
2023-05-10T00:10:19.587Z,1005.49
2023-05-10T00:11:21.628Z,1005.47
2023-05-10T00:12:19.541Z,1005.45
2023-05-10T00:13:19.600Z,1005.52
2023-05-10T00:14:19.504Z,1005.48
2023-05-10T00:15:19.531Z,1005.48
2023-05-10T00:16:19.588Z,1005.51
2023-05-10T00:17:19.484Z,1005.50
2023-05-10T00:18:19.459Z,1005.45
2023-05-10T00:19:19.556Z,1005.45
2023-05-10T00:20:19.603Z,1005.47
2023-05-10T00:21:19.448Z,1005.43
2023-05-10T00:22:19.426Z,1005.43
2023-05-10T00:23:19.404Z,1005.44
2023-05-10T00:24:19.380Z,1005.47
2023-05-10T00:25:19.367Z,1005.43
2023-05-10T00:26:19.376Z,1005.45
2023-05-10T00:27:19.356Z,1005.48
2023-05-10T00:28:19.335Z,1005.42
2023-05-10T00:29:19.297Z,1005.45
2023-05-10T00:30:19.432Z,1005.43
2023-05-10T00:31:19.314Z,1005.42
2023-05-10T00:32:19.371Z,1005.46
2023-05-10T00:33:19.371Z,1005.49
2023-05-10T00:34:19.238Z,1005.48
2023-05-10T00:35:19.217Z,1005.41
2023-05-10T00:36:19.245Z,1005.46
2023-05-10T00:37:19.273Z,1005.45
2023-05-10T00:38:19.239Z,1005.43
2023-05-10T00:39:19.170Z,1005.46
2023-05-10T00:40:19.309Z,1005.50
2023-05-10T00:41:19.163Z,1005.46
2023-05-10T00:42:19.187Z,1005.45
2023-05-10T00:43:19.140Z,1005.45
2023-05-10T00:44:19.135Z,1005.45
2023-05-10T00:45:19.094Z,1005.47
2023-05-10T00:46:19.097Z,1005.40
2023-05-10T00:47:19.100Z,1005.43
2023-05-10T00:48:19.146Z,1005.49
2023-05-10T00:49:19.031Z,1005.44
2023-05-10T00:50:19.143Z,1005.45
2023-05-10T00:51:19.029Z,1005.44
2023-05-10T00:52:19.002Z,1005.48
2023-05-10T00:53:19.026Z,1005.50
2023-05-10T00:54:19.007Z,1005.46
2023-05-10T00:55:18.949Z,1005.47
2023-05-10T00:56:18.975Z,1005.41
2023-05-10T00:57:18.924Z,1005.39
2023-05-10T00:58:19.017Z,1005.36
2023-05-10T00:59:18.949Z,1005.44
2023-05-10T01:00:18.974Z,1005.45
2023-05-10T01:01:18.940Z,1005.38
2023-05-10T01:02:18.954Z,1005.38
2023-05-10T01:03:19.098Z,1005.47
2023-05-10T01:04:18.857Z,1005.48
2023-05-10T01:05:19.031Z,1005.49
2023-05-10T01:06:18.850Z,1005.52
2023-05-10T01:07:18.838Z,1005.53
2023-05-10T01:08:18.803Z,1005.52
2023-05-10T01:09:18.812Z,1005.51
2023-05-10T01:10:18.921Z,1005.52
2023-05-10T01:11:18.783Z,1005.48
2023-05-10T01:12:18.829Z,1005.51
2023-05-10T01:13:18.798Z,1005.55
2023-05-10T01:14:18.756Z,1005.53
2023-05-10T01:15:18.705Z,1005.56
2023-05-10T01:16:18.733Z,1005.50
2023-05-10T01:17:18.705Z,1005.51
2023-05-10T01:18:18.696Z,1005.51
2023-05-10T01:19:18.726Z,1005.48
2023-05-10T01:20:18.993Z,1005.50
2023-05-10T01:21:18.668Z,1005.46
2023-05-10T01:22:18.602Z,1005.47
2023-05-10T01:23:18.628Z,1005.53
2023-05-10T01:24:18.639Z,1005.50
2023-05-10T01:25:18.597Z,1005.53
2023-05-10T01:26:18.580Z,1005.50
2023-05-10T01:27:18.557Z,1005.46
2023-05-10T01:28:18.536Z,1005.47
2023-05-10T01:29:18.601Z,1005.47
2023-05-10T01:30:18.516Z,1005.51
2023-05-10T01:31:18.532Z,1005.53
2023-05-10T01:32:18.472Z,1005.53
2023-05-10T01:33:18.467Z,1005.53
2023-05-10T01:34:18.489Z,1005.53
2023-05-10T01:35:18.456Z,1005.58
2023-05-10T01:36:18.443Z,1005.57
2023-05-10T01:37:18.465Z,1005.59
2023-05-10T01:38:18.381Z,1005.58
2023-05-10T01:39:18.436Z,1005.58
2023-05-10T01:40:18.402Z,1005.48
2023-05-10T01:41:18.383Z,1005.53
2023-05-10T01:42:18.329Z,1005.57
2023-05-10T01:43:18.334Z,1005.51
2023-05-10T01:44:18.328Z,1005.54
2023-05-10T01:45:18.340Z,1005.54
2023-05-10T01:46:18.311Z,1005.55
2023-05-10T01:47:18.302Z,1005.56
2023-05-10T01:48:18.300Z,1005.57
2023-05-10T01:49:18.250Z,1005.54
2023-05-10T01:50:18.666Z,1005.59
2023-05-10T01:51:18.309Z,1005.65
2023-05-10T01:52:18.204Z,1005.60
2023-05-10T01:53:18.218Z,1005.56
2023-05-10T01:54:18.173Z,1005.58
2023-05-10T01:55:18.216Z,1005.64
2023-05-10T01:56:18.144Z,1005.65
2023-05-10T01:57:18.139Z,1005.63
2023-05-10T01:58:18.147Z,1005.55
2023-05-10T01:59:18.154Z,1005.57
2023-05-10T02:00:18.341Z,1005.58
2023-05-10T02:01:18.202Z,1005.55
2023-05-10T02:02:18.087Z,1005.54
2023-05-10T02:03:18.150Z,1005.52
2023-05-10T02:04:18.063Z,1005.51
2023-05-10T02:05:18.080Z,1005.48
2023-05-10T02:06:18.026Z,1005.53
2023-05-10T02:07:18.011Z,1005.51
2023-05-10T02:08:17.988Z,1005.53
2023-05-10T02:09:17.984Z,1005.55
2023-05-10T02:10:18.217Z,1005.51
2023-05-10T02:11:18.007Z,1005.52
2023-05-10T02:12:17.934Z,1005.54
2023-05-10T02:13:17.968Z,1005.54
2023-05-10T02:14:17.911Z,1005.57
2023-05-10T02:15:17.929Z,1005.58
2023-05-10T02:16:17.941Z,1005.57
2023-05-10T02:17:17.900Z,1005.66
2023-05-10T02:18:17.870Z,1005.63
2023-05-10T02:19:17.884Z,1005.64
2023-05-10T02:20:18.212Z,1005.63
2023-05-10T02:21:17.889Z,1005.66
2023-05-10T02:22:17.831Z,1005.67
2023-05-10T02:23:17.839Z,1005.66
2023-05-10T02:24:17.774Z,1005.68
2023-05-10T02:25:17.789Z,1005.69
2023-05-10T02:26:17.810Z,1005.71
2023-05-10T02:27:17.783Z,1005.67
2023-05-10T02:28:17.733Z,1005.73
2023-05-10T02:29:17.724Z,1005.75
2023-05-10T02:30:18.089Z,1005.70
2023-05-10T02:31:17.721Z,1005.81
2023-05-10T02:32:17.847Z,1005.78
2023-05-10T02:33:17.677Z,1005.76
2023-05-10T02:34:17.665Z,1005.78
2023-05-10T02:35:17.657Z,1005.78
2023-05-10T02:36:17.641Z,1005.79
2023-05-10T02:37:17.620Z,1005.75
2023-05-10T02:38:17.633Z,1005.81
2023-05-10T02:39:17.601Z,1005.86
2023-05-10T02:40:18.002Z,1005.84
2023-05-10T02:41:17.589Z,1005.81
2023-05-10T02:42:17.585Z,1005.84
2023-05-10T02:43:17.584Z,1005.85
2023-05-10T02:44:17.540Z,1005.84
2023-05-10T02:45:17.514Z,1005.83
2023-05-10T02:46:17.609Z,1005.79
2023-05-10T02:47:17.527Z,1005.79
2023-05-10T02:48:17.484Z,1005.81
2023-05-10T02:49:17.486Z,1005.84
2023-05-10T02:50:17.835Z,1005.77
2023-05-10T02:51:17.442Z,1005.78
2023-05-10T02:52:17.467Z,1005.81
2023-05-10T02:53:17.432Z,1005.88
2023-05-10T02:54:17.410Z,1005.85
2023-05-10T02:55:17.434Z,1005.85
2023-05-10T02:56:17.386Z,1005.83
2023-05-10T02:57:17.360Z,1005.83
2023-05-10T02:58:17.397Z,1005.85
2023-05-10T02:59:17.364Z,1005.83
2023-05-10T03:00:17.588Z,1005.85
2023-05-10T03:01:17.379Z,1005.83
2023-05-10T03:02:17.295Z,1005.86
2023-05-10T03:03:17.286Z,1005.88
2023-05-10T03:04:17.358Z,1005.87
2023-05-10T03:05:17.309Z,1005.87
2023-05-10T03:06:17.259Z,1005.86
2023-05-10T03:07:17.252Z,1005.84
2023-05-10T03:08:17.230Z,1005.86
2023-05-10T03:09:17.202Z,1005.87
2023-05-10T03:10:17.432Z,1005.86
2023-05-10T03:11:17.204Z,1005.83
2023-05-10T03:12:17.197Z,1005.87
2023-05-10T03:13:17.220Z,1005.88
2023-05-10T03:14:17.162Z,1005.91
2023-05-10T03:15:17.130Z,1005.87
2023-05-10T03:16:17.161Z,1005.88
2023-05-10T03:17:17.149Z,1005.89
2023-05-10T03:18:17.094Z,1005.91
2023-05-10T03:19:17.072Z,1005.89
2023-05-10T03:20:17.349Z,1005.90
2023-05-10T03:21:17.038Z,1005.87
2023-05-10T03:22:17.083Z,1005.93
2023-05-10T03:23:17.057Z,1005.94
2023-05-10T03:24:17.012Z,1005.89
2023-05-10T03:25:17.013Z,1005.93
2023-05-10T03:26:16.989Z,1005.96
2023-05-10T03:27:16.968Z,1005.95
2023-05-10T03:28:16.948Z,1005.88
2023-05-10T03:29:16.941Z,1005.96
2023-05-10T03:30:17.233Z,1005.95
2023-05-10T03:31:16.957Z,1006.08
2023-05-10T03:32:16.915Z,1006.03
2023-05-10T03:33:16.928Z,1006.11
2023-05-10T03:34:16.897Z,1006.06
2023-05-10T03:35:16.916Z,1006.08
2023-05-10T03:36:16.868Z,1006.11
2023-05-10T03:37:16.863Z,1006.10
2023-05-10T03:38:16.840Z,1006.11
2023-05-10T03:39:16.837Z,1006.13
2023-05-10T03:40:17.118Z,1006.11
2023-05-10T03:41:16.804Z,1006.06
2023-05-10T03:42:16.864Z,1006.08
2023-05-10T03:43:16.793Z,1006.01
2023-05-10T03:44:16.773Z,1006.16
2023-05-10T03:45:16.829Z,1006.15
2023-05-10T03:46:16.874Z,1006.08
2023-05-10T03:47:16.711Z,1006.14
2023-05-10T03:48:16.722Z,1006.15
2023-05-10T03:49:16.721Z,1006.16
2023-05-10T03:50:16.914Z,1006.12
2023-05-10T03:51:16.651Z,1006.14
2023-05-10T03:52:16.664Z,1006.15
2023-05-10T03:53:16.661Z,1006.09
2023-05-10T03:54:16.637Z,1006.12
2023-05-10T03:55:16.672Z,1006.13
2023-05-10T03:56:16.607Z,1006.10
2023-05-10T03:57:16.583Z,1006.12
2023-05-10T03:58:16.546Z,1006.18
2023-05-10T03:59:16.555Z,1006.15
2023-05-10T04:00:16.786Z,1006.18
2023-05-10T04:01:16.534Z,1006.11
2023-05-10T04:02:16.644Z,1006.18
2023-05-10T04:03:16.567Z,1006.15
2023-05-10T04:04:16.531Z,1006.16
2023-05-10T04:05:16.485Z,1006.15
2023-05-10T04:06:16.539Z,1006.19
2023-05-10T04:07:16.471Z,1006.13
2023-05-10T04:08:16.484Z,1006.20
2023-05-10T04:09:16.433Z,1006.19
2023-05-10T04:10:16.603Z,1006.15
2023-05-10T04:11:16.439Z,1006.17
2023-05-10T04:12:16.393Z,1006.23
2023-05-10T04:13:16.427Z,1006.16
2023-05-10T04:14:16.369Z,1006.16
2023-05-10T04:15:16.347Z,1006.15
2023-05-10T04:16:16.347Z,1006.18
2023-05-10T04:17:16.537Z,1006.16
2023-05-10T04:18:16.289Z,1006.19
2023-05-10T04:19:16.313Z,1006.17
2023-05-10T04:20:16.552Z,1006.16
2023-05-10T04:21:16.340Z,1006.15
2023-05-10T04:22:16.268Z,1006.18
2023-05-10T04:23:16.277Z,1006.20
2023-05-10T04:24:16.230Z,1006.17
2023-05-10T04:25:16.207Z,1006.21
2023-05-10T04:26:16.206Z,1006.12
2023-05-10T04:27:16.226Z,1006.16
2023-05-10T04:28:16.175Z,1006.16
2023-05-10T04:29:16.183Z,1006.13
2023-05-10T04:30:16.401Z,1006.12
2023-05-10T04:31:16.240Z,1006.09
2023-05-10T04:32:16.103Z,1006.08
2023-05-10T04:33:16.094Z,1006.13
2023-05-10T04:34:16.114Z,1006.14
2023-05-10T04:35:16.140Z,1006.17
2023-05-10T04:36:16.102Z,1006.17
2023-05-10T04:37:16.044Z,1006.17
2023-05-10T04:38:16.060Z,1006.18
2023-05-10T04:39:16.048Z,1006.14
2023-05-10T04:40:16.175Z,1006.21
2023-05-10T04:41:16.050Z,1006.19
2023-05-10T04:42:16.049Z,1006.22
2023-05-10T04:43:15.970Z,1006.23
2023-05-10T04:44:15.939Z,1006.18
2023-05-10T04:45:15.934Z,1006.20
2023-05-10T04:46:15.974Z,1006.19
2023-05-10T04:47:15.912Z,1006.17
2023-05-10T04:48:15.923Z,1006.26
2023-05-10T04:49:15.904Z,1006.25
2023-05-10T04:50:16.121Z,1006.25
2023-05-10T04:51:15.913Z,1006.27
2023-05-10T04:52:15.869Z,1006.31
2023-05-10T04:53:16.044Z,1006.33
2023-05-10T04:54:15.867Z,1006.34
2023-05-10T04:55:15.838Z,1006.38
2023-05-10T04:56:15.843Z,1006.34
2023-05-10T04:57:15.810Z,1006.36
2023-05-10T04:58:15.764Z,1006.40
2023-05-10T04:59:15.786Z,1006.40
2023-05-10T05:00:15.977Z,1006.41
2023-05-10T05:01:15.860Z,1006.41
2023-05-10T05:02:15.706Z,1006.41
2023-05-10T05:03:15.835Z,1006.41
2023-05-10T05:04:15.711Z,1006.41
2023-05-10T05:05:15.766Z,1006.47
2023-05-10T05:06:15.703Z,1006.41
2023-05-10T05:07:15.689Z,1006.45
2023-05-10T05:08:15.658Z,1006.46
2023-05-10T05:09:15.636Z,1006.40
2023-05-10T05:10:15.902Z,1006.41
2023-05-10T05:11:15.629Z,1006.46
2023-05-10T05:12:15.619Z,1006.43
2023-05-10T05:13:15.642Z,1006.48
2023-05-10T05:14:15.564Z,1006.51
2023-05-10T05:15:15.587Z,1006.50
2023-05-10T05:16:15.795Z,1006.51
2023-05-10T05:17:15.562Z,1006.53
2023-05-10T05:18:15.574Z,1006.61
2023-05-10T05:19:15.524Z,1006.61
2023-05-10T05:20:15.727Z,1006.61
2023-05-10T05:21:15.512Z,1006.57
2023-05-10T05:22:15.948Z,1006.59
2023-05-10T05:23:15.430Z,1006.62
2023-05-10T05:24:15.480Z,1006.64
2023-05-10T05:25:15.443Z,1006.66
2023-05-10T05:26:15.432Z,1006.72
2023-05-10T05:27:15.411Z,1006.72
2023-05-10T05:28:15.381Z,1006.71
2023-05-10T05:29:15.380Z,1006.68
2023-05-10T05:30:15.691Z,1006.66
2023-05-10T05:31:15.346Z,1006.70
2023-05-10T05:32:15.366Z,1006.71
2023-05-10T05:33:15.325Z,1006.77
2023-05-10T05:34:15.300Z,1006.78
2023-05-10T05:35:15.468Z,1006.77
2023-05-10T05:36:15.313Z,1006.81
2023-05-10T05:37:15.258Z,1006.77
2023-05-10T05:38:15.278Z,1006.82
2023-05-10T05:39:15.214Z,1006.77
2023-05-10T05:40:15.254Z,1006.79
2023-05-10T05:41:15.220Z,1006.82
2023-05-10T05:42:15.228Z,1006.80
2023-05-10T05:43:15.268Z,1006.82
2023-05-10T05:44:15.223Z,1006.85
2023-05-10T05:45:15.295Z,1006.81
2023-05-10T05:46:15.239Z,1006.83
2023-05-10T05:47:15.143Z,1006.82
2023-05-10T05:48:15.158Z,1006.79
2023-05-10T05:49:15.082Z,1006.85
2023-05-10T05:50:15.091Z,1006.83
2023-05-10T05:51:15.085Z,1006.86
2023-05-10T05:52:15.113Z,1006.88
2023-05-10T05:53:15.030Z,1006.91
2023-05-10T05:54:15.053Z,1006.87
2023-05-10T05:55:15.175Z,1006.83
2023-05-10T05:56:15.008Z,1006.86
2023-05-10T05:57:15.032Z,1006.88
2023-05-10T05:58:22.583Z,1006.88
2023-05-10T05:59:14.982Z,1006.89
2023-05-10T06:00:14.972Z,1006.90
2023-05-10T06:01:14.949Z,1007.00
2023-05-10T06:02:14.983Z,1006.98
2023-05-10T06:03:15.041Z,1006.94
2023-05-10T06:04:14.952Z,1006.90
2023-05-10T06:05:15.023Z,1006.89
2023-05-10T06:06:14.918Z,1006.88
2023-05-10T06:07:14.913Z,1006.95
2023-05-10T06:08:14.880Z,1006.97
2023-05-10T06:09:14.849Z,1006.98
2023-05-10T06:10:14.838Z,1007.03
2023-05-10T06:11:14.842Z,1007.00
2023-05-10T06:12:14.871Z,1007.08
2023-05-10T06:13:14.934Z,1007.09
2023-05-10T06:14:14.811Z,1007.07
2023-05-10T06:15:15.041Z,1007.13
2023-05-10T06:16:14.818Z,1007.14
2023-05-10T06:17:14.759Z,1007.18
2023-05-10T06:18:14.876Z,1007.12
2023-05-10T06:19:14.729Z,1007.08
2023-05-10T06:20:14.717Z,1007.21
2023-05-10T06:21:14.674Z,1007.22
2023-05-10T06:22:14.726Z,1007.19
2023-05-10T06:23:14.682Z,1007.19
2023-05-10T06:24:14.683Z,1007.18
2023-05-10T06:25:14.846Z,1007.23
2023-05-10T06:26:14.646Z,1007.25
2023-05-10T06:27:14.640Z,1007.28
2023-05-10T06:28:14.606Z,1007.26
2023-05-10T06:29:14.607Z,1007.30
2023-05-10T06:30:14.601Z,1007.26
2023-05-10T06:31:14.604Z,1007.23
2023-05-10T06:32:14.561Z,1007.36
2023-05-10T06:33:14.536Z,1007.25
2023-05-10T06:34:14.522Z,1007.30
2023-05-10T06:35:14.615Z,1007.27
2023-05-10T06:36:14.484Z,1007.31
2023-05-10T06:37:14.478Z,1007.28
2023-05-10T06:38:14.509Z,1007.35
2023-05-10T06:39:14.489Z,1007.37
2023-05-10T06:40:14.454Z,1007.32
2023-05-10T06:41:14.431Z,1007.34
2023-05-10T06:42:14.440Z,1007.32
2023-05-10T06:43:14.422Z,1007.33
2023-05-10T06:44:14.392Z,1007.36
2023-05-10T06:45:14.511Z,1007.33
2023-05-10T06:46:14.473Z,1007.36
2023-05-10T06:47:14.375Z,1007.41
2023-05-10T06:48:14.421Z,1007.47
2023-05-10T06:49:14.372Z,1007.45
2023-05-10T06:50:14.339Z,1007.41
2023-05-10T06:51:14.280Z,1007.42
2023-05-10T06:52:14.345Z,1007.46
2023-05-10T06:53:14.261Z,1007.45
2023-05-10T06:54:14.380Z,1007.44
2023-05-10T06:55:14.324Z,1007.50
2023-05-10T06:56:14.252Z,1007.51
2023-05-10T06:57:27.635Z,1007.53
2023-05-10T06:58:15.194Z,1007.54
2023-05-10T06:59:14.281Z,1007.54
2023-05-10T07:00:14.220Z,1007.56
2023-05-10T07:01:14.260Z,1007.57
2023-05-10T07:02:14.307Z,1007.56
2023-05-10T07:03:14.211Z,1007.58
2023-05-10T07:04:14.161Z,1007.57
2023-05-10T07:05:14.098Z,1007.54
2023-05-10T07:06:29.512Z,1007.56
2023-05-10T07:07:15.072Z,1007.57
2023-05-10T07:08:14.064Z,1007.59
2023-05-10T07:09:14.106Z,1007.54
2023-05-10T07:10:14.058Z,1007.60
2023-05-10T07:11:14.020Z,1007.53
2023-05-10T07:12:15.333Z,1007.57
2023-05-10T07:13:14.093Z,1007.48
2023-05-10T07:14:14.005Z,1007.54
2023-05-10T07:15:14.028Z,1007.52
2023-05-10T07:16:13.991Z,1007.55
2023-05-10T07:17:14.061Z,1007.54
2023-05-10T07:18:13.966Z,1007.59
2023-05-10T07:19:13.920Z,1007.54
2023-05-10T07:20:13.925Z,1007.54
2023-05-10T07:21:13.979Z,1007.56
2023-05-10T07:22:13.896Z,1007.57
2023-05-10T07:23:13.887Z,1007.52
2023-05-10T07:24:13.874Z,1007.56
2023-05-10T07:25:13.846Z,1007.53
2023-05-10T07:26:13.862Z,1007.60
2023-05-10T07:27:13.855Z,1007.58
2023-05-10T07:28:13.788Z,1007.60
2023-05-10T07:29:13.807Z,1007.60
2023-05-10T07:30:13.796Z,1007.58
2023-05-10T07:31:13.761Z,1007.57
2023-05-10T07:32:13.840Z,1007.57
2023-05-10T07:33:13.773Z,1007.60
2023-05-10T07:34:13.724Z,1007.62
2023-05-10T07:35:13.758Z,1007.61
2023-05-10T07:36:13.722Z,1007.66
2023-05-10T07:37:13.720Z,1007.70
2023-05-10T07:38:13.700Z,1007.69
2023-05-10T07:39:18.607Z,1007.63
2023-05-10T07:40:14.696Z,1007.58
2023-05-10T07:41:13.621Z,1007.66
2023-05-10T07:42:13.638Z,1007.68
2023-05-10T07:43:13.623Z,1007.62
2023-05-10T07:44:13.587Z,1007.69
2023-05-10T07:45:13.626Z,1007.62
2023-05-10T07:46:13.614Z,1007.66
2023-05-10T07:47:13.552Z,1007.64
2023-05-10T07:48:13.553Z,1007.67
2023-05-10T07:49:13.506Z,1007.61
2023-05-10T07:50:13.531Z,1007.63
2023-05-10T07:51:13.480Z,1007.60
2023-05-10T07:52:13.473Z,1007.62
2023-05-10T07:53:13.482Z,1007.58
2023-05-10T07:54:13.510Z,1007.60
2023-05-10T07:55:13.456Z,1007.58
2023-05-10T07:56:13.436Z,1007.62
2023-05-10T07:57:13.428Z,1007.61
2023-05-10T07:58:13.430Z,1007.62
2023-05-10T07:59:13.373Z,1007.67
2023-05-10T08:00:13.815Z,1007.68
2023-05-10T08:01:13.356Z,1007.63
2023-05-10T08:02:13.453Z,1007.68
2023-05-10T08:03:13.582Z,1007.71
2023-05-10T08:04:13.456Z,1007.73
2023-05-10T08:05:13.387Z,1007.72
2023-05-10T08:06:13.312Z,1007.69
2023-05-10T08:07:13.292Z,1007.71
2023-05-10T08:08:13.314Z,1007.77
2023-05-10T08:09:13.312Z,1007.73
2023-05-10T08:10:13.274Z,1007.76
2023-05-10T08:11:13.246Z,1007.77
2023-05-10T08:12:13.252Z,1007.79
2023-05-10T08:13:13.198Z,1007.76
2023-05-10T08:14:13.197Z,1007.79
2023-05-10T08:15:13.201Z,1007.74
2023-05-10T08:16:13.225Z,1007.80
2023-05-10T08:17:13.202Z,1007.74
2023-05-10T08:18:13.240Z,1007.77
2023-05-10T08:19:13.155Z,1007.77
2023-05-10T08:20:13.136Z,1007.77
2023-05-10T08:21:13.097Z,1007.77
2023-05-10T08:22:13.162Z,1007.84
2023-05-10T08:23:13.055Z,1007.84
2023-05-10T08:24:13.143Z,1007.83
2023-05-10T08:25:13.085Z,1007.90
2023-05-10T08:26:13.109Z,1007.90
2023-05-10T08:27:13.011Z,1007.90
2023-05-10T08:28:13.035Z,1007.88
2023-05-10T08:29:13.037Z,1007.92
2023-05-10T08:30:12.994Z,1007.86
2023-05-10T08:31:13.002Z,1007.91
2023-05-10T08:32:12.975Z,1007.96
2023-05-10T08:33:12.994Z,1007.94
2023-05-10T08:34:12.952Z,1007.92
2023-05-10T08:35:12.934Z,1007.89
2023-05-10T08:36:12.962Z,1007.96
2023-05-10T08:37:12.908Z,1007.90
2023-05-10T08:38:12.926Z,1007.97
2023-05-10T08:39:22.959Z,1007.93
2023-05-10T08:40:13.908Z,1008.02
2023-05-10T08:41:12.986Z,1008.03
2023-05-10T08:42:12.900Z,1007.95
2023-05-10T08:43:12.826Z,1007.96
2023-05-10T08:44:13.733Z,1008.01
2023-05-10T08:45:12.862Z,1008.01
2023-05-10T08:46:12.906Z,1008.00
2023-05-10T08:47:13.062Z,1008.04
2023-05-10T08:48:12.792Z,1008.04
2023-05-10T08:49:12.754Z,1008.02
2023-05-10T08:50:12.747Z,1008.05
2023-05-10T08:51:12.874Z,1008.06
2023-05-10T08:52:12.706Z,1008.01
2023-05-10T08:53:12.741Z,1008.04
2023-05-10T08:54:12.691Z,1008.03
2023-05-10T08:55:12.800Z,1008.08
2023-05-10T08:56:12.681Z,1008.09
2023-05-10T08:57:12.710Z,1008.09
2023-05-10T08:58:12.688Z,1008.10
2023-05-10T08:59:12.593Z,1008.11
2023-05-10T09:00:12.596Z,1008.15
2023-05-10T09:01:12.652Z,1008.15
2023-05-10T09:02:12.784Z,1008.12
2023-05-10T09:03:12.764Z,1008.16
2023-05-10T09:04:12.701Z,1008.12
2023-05-10T09:05:12.615Z,1008.10
2023-05-10T09:06:12.525Z,1008.20
2023-05-10T09:07:12.511Z,1008.16
2023-05-10T09:08:12.517Z,1008.16
2023-05-10T09:09:12.500Z,1008.11
2023-05-10T09:10:12.482Z,1008.19
2023-05-10T09:11:12.440Z,1008.16
2023-05-10T09:12:12.593Z,1008.15
2023-05-10T09:13:12.514Z,1008.17
2023-05-10T09:14:12.412Z,1008.16
2023-05-10T09:15:12.443Z,1008.20
2023-05-10T09:16:21.014Z,1008.19
2023-05-10T09:17:13.515Z,1008.20
2023-05-10T09:18:12.434Z,1008.23
2023-05-10T09:19:12.496Z,1008.21
2023-05-10T09:20:12.329Z,1008.18
2023-05-10T09:21:12.339Z,1008.28
2023-05-10T09:22:12.304Z,1008.23
2023-05-10T09:23:12.433Z,1008.22
2023-05-10T09:24:12.276Z,1008.24
2023-05-10T09:25:12.279Z,1008.24
2023-05-10T09:26:12.279Z,1008.25
2023-05-10T09:27:12.242Z,1008.25
2023-05-10T09:28:12.358Z,1008.33
2023-05-10T09:29:12.245Z,1008.33
2023-05-10T09:30:12.247Z,1008.28
2023-05-10T09:31:12.203Z,1008.34
2023-05-10T09:32:13.912Z,1008.36
2023-05-10T09:33:12.308Z,1008.30
2023-05-10T09:34:12.161Z,1008.34
2023-05-10T09:35:12.122Z,1008.40
2023-05-10T09:36:12.168Z,1008.44
2023-05-10T09:37:12.117Z,1008.44
2023-05-10T09:38:12.086Z,1008.49
2023-05-10T09:39:12.116Z,1008.48
2023-05-10T09:40:12.126Z,1008.49
2023-05-10T09:41:12.100Z,1008.46
2023-05-10T09:42:12.123Z,1008.49
2023-05-10T09:43:12.177Z,1008.47
2023-05-10T09:44:11.995Z,1008.46
2023-05-10T09:45:12.005Z,1008.52
2023-05-10T09:46:12.064Z,1008.51
2023-05-10T09:47:12.012Z,1008.51
2023-05-10T09:48:12.029Z,1008.52
2023-05-10T09:49:12.949Z,1008.55
2023-05-10T09:50:11.948Z,1008.51
2023-05-10T09:51:11.964Z,1008.53
2023-05-10T09:52:11.911Z,1008.51
2023-05-10T09:53:11.900Z,1008.49
2023-05-10T09:54:12.022Z,1008.52
2023-05-10T09:55:11.874Z,1008.51
2023-05-10T09:56:11.868Z,1008.53
2023-05-10T09:57:11.905Z,1008.53
2023-05-10T09:58:12.054Z,1008.54
2023-05-10T09:59:12.086Z,1008.52
2023-05-10T10:00:11.823Z,1008.59
2023-05-10T10:01:11.893Z,1008.53
2023-05-10T10:02:11.849Z,1008.53
2023-05-10T10:03:11.833Z,1008.51
2023-05-10T10:04:11.833Z,1008.53
2023-05-10T10:05:12.009Z,1008.53
2023-05-10T10:06:26.499Z,1008.52
2023-05-10T10:07:12.793Z,1008.52
2023-05-10T10:08:11.743Z,1008.48
2023-05-10T10:09:11.687Z,1008.54
2023-05-10T10:10:11.786Z,1008.55
2023-05-10T10:11:11.697Z,1008.60
2023-05-10T10:12:11.661Z,1008.60
2023-05-10T10:13:11.637Z,1008.54
2023-05-10T10:14:11.658Z,1008.59
2023-05-10T10:15:11.622Z,1008.56
2023-05-10T10:16:11.628Z,1008.60
2023-05-10T10:17:11.649Z,1008.64
2023-05-10T10:18:11.617Z,1008.64
2023-05-10T10:19:11.614Z,1008.65
2023-05-10T10:20:12.341Z,1008.66
2023-05-10T10:21:11.606Z,1008.67
2023-05-10T10:22:11.496Z,1008.66
2023-05-10T10:23:11.626Z,1008.59
2023-05-10T10:24:11.492Z,1008.68
2023-05-10T10:25:11.478Z,1008.66
2023-05-10T10:26:11.467Z,1008.64
2023-05-10T10:27:11.478Z,1008.68
2023-05-10T10:28:11.420Z,1008.65
2023-05-10T10:29:11.458Z,1008.70
2023-05-10T10:30:11.428Z,1008.68
2023-05-10T10:31:11.467Z,1008.68
2023-05-10T10:32:11.552Z,1008.69
2023-05-10T10:33:24.304Z,1008.66
2023-05-10T10:34:12.404Z,1008.69
2023-05-10T10:35:11.358Z,1008.68
2023-05-10T10:36:11.359Z,1008.71
2023-05-10T10:37:11.348Z,1008.72
2023-05-10T10:38:11.336Z,1008.68
2023-05-10T10:39:11.416Z,1008.71
2023-05-10T10:40:11.281Z,1008.65
2023-05-10T10:41:11.357Z,1008.65
2023-05-10T10:42:11.253Z,1008.68
2023-05-10T10:43:11.236Z,1008.70
2023-05-10T10:44:11.258Z,1008.65
2023-05-10T10:45:11.609Z,1008.67
2023-05-10T10:46:11.194Z,1008.67
2023-05-10T10:47:11.418Z,1008.71
2023-05-10T10:48:11.156Z,1008.68
2023-05-10T10:49:11.194Z,1008.74
2023-05-10T10:50:11.218Z,1008.71
2023-05-10T10:51:12.916Z,1008.71
2023-05-10T10:52:11.125Z,1008.73
2023-05-10T10:53:11.152Z,1008.73
2023-05-10T10:54:11.171Z,1008.76
2023-05-10T10:55:11.099Z,1008.68
2023-05-10T10:56:11.193Z,1008.69
2023-05-10T10:57:11.088Z,1008.75
2023-05-10T10:58:11.042Z,1008.64
2023-05-10T10:59:11.164Z,1008.67
2023-05-10T11:00:11.022Z,1008.71
2023-05-10T11:01:11.106Z,1008.68
2023-05-10T11:02:11.031Z,1008.69
2023-05-10T11:03:11.018Z,1008.62
2023-05-10T11:04:10.975Z,1008.71
2023-05-10T11:05:10.961Z,1008.71
2023-05-10T11:06:10.907Z,1008.67
2023-05-10T11:07:10.945Z,1008.74
2023-05-10T11:08:10.908Z,1008.74
2023-05-10T11:09:11.039Z,1008.77
2023-05-10T11:10:10.871Z,1008.74
2023-05-10T11:11:10.950Z,1008.73
2023-05-10T11:12:10.878Z,1008.75
2023-05-10T11:13:10.849Z,1008.72
2023-05-10T11:14:10.851Z,1008.78
2023-05-10T11:15:11.030Z,1008.79
2023-05-10T11:16:10.879Z,1008.82
2023-05-10T11:17:10.917Z,1008.81
2023-05-10T11:18:10.835Z,1008.76
2023-05-10T11:19:10.924Z,1008.80
2023-05-10T11:20:10.785Z,1008.86
2023-05-10T11:21:10.763Z,1008.77
2023-05-10T11:22:10.772Z,1008.81
2023-05-10T11:23:10.714Z,1008.84
2023-05-10T11:24:10.695Z,1008.85
2023-05-10T11:25:10.760Z,1008.83
2023-05-10T11:26:10.671Z,1008.85
2023-05-10T11:27:10.643Z,1008.88
2023-05-10T11:28:10.645Z,1008.92
2023-05-10T11:29:10.646Z,1008.94
2023-05-10T11:30:10.631Z,1008.95
2023-05-10T11:31:10.624Z,1008.95
2023-05-10T11:32:10.612Z,1009.01
2023-05-10T11:33:10.592Z,1008.98
2023-05-10T11:34:10.577Z,1009.00
2023-05-10T11:35:10.581Z,1008.95
2023-05-10T11:36:10.573Z,1008.97
2023-05-10T11:37:10.541Z,1008.97
2023-05-10T11:38:10.496Z,1009.00
2023-05-10T11:39:10.542Z,1009.04
2023-05-10T11:40:10.502Z,1009.01
2023-05-10T11:41:10.493Z,1009.02
2023-05-10T11:42:10.539Z,1008.95
2023-05-10T11:43:10.432Z,1008.98
2023-05-10T11:44:10.401Z,1009.02
2023-05-10T11:45:10.505Z,1009.03
2023-05-10T11:46:10.432Z,1008.92
2023-05-10T11:47:10.411Z,1008.98
2023-05-10T11:48:10.416Z,1008.94
2023-05-10T11:49:10.378Z,1008.98
2023-05-10T11:50:10.379Z,1009.02
2023-05-10T11:51:10.449Z,1009.00
2023-05-10T11:52:10.338Z,1008.97
2023-05-10T11:53:10.293Z,1008.99
2023-05-10T11:54:10.316Z,1008.97
2023-05-10T11:55:10.323Z,1009.04
2023-05-10T11:56:10.256Z,1009.07
2023-05-10T11:57:10.248Z,1009.07
2023-05-10T11:58:10.259Z,1009.05
2023-05-10T11:59:10.255Z,1009.00
2023-05-10T12:00:10.210Z,1009.06
2023-05-10T12:01:10.207Z,1009.09
2023-05-10T12:02:10.170Z,1009.03
2023-05-10T12:03:18.304Z,1009.04
2023-05-10T12:04:10.290Z,1009.00
2023-05-10T12:05:10.356Z,1009.03